createdAt,value
2022-12-08T00:00:01.883Z,25.60
2022-12-08T00:01:02.247Z,26.00
2022-12-08T00:02:02.748Z,25.70
2022-12-08T00:03:02.972Z,21.20
2022-12-08T00:04:03.138Z,23.80
2022-12-08T00:05:03.543Z,26.10
2022-12-08T00:06:03.699Z,24.70
2022-12-08T00:07:04.056Z,22.40
2022-12-08T00:08:04.412Z,23.70
2022-12-08T00:09:04.608Z,24.70
2022-12-08T00:10:25.121Z,20.00
2022-12-08T00:11:06.208Z,22.20
2022-12-08T00:12:05.570Z,22.00
2022-12-08T00:13:05.834Z,25.50
2022-12-08T00:14:06.128Z,22.90
2022-12-08T00:15:06.591Z,22.00
2022-12-08T00:16:06.657Z,21.70
2022-12-08T00:17:06.859Z,26.60
2022-12-08T00:18:07.186Z,29.90
2022-12-08T00:19:07.475Z,25.20
2022-12-08T00:20:07.827Z,20.20
2022-12-08T00:21:09.036Z,22.40
2022-12-08T00:22:08.456Z,21.90
2022-12-08T00:23:08.848Z,22.70
2022-12-08T00:24:09.077Z,21.80
2022-12-08T00:25:09.269Z,24.10
2022-12-08T00:26:09.585Z,22.40
2022-12-08T00:27:09.889Z,22.60
2022-12-08T00:28:10.208Z,24.10
2022-12-08T00:29:15.890Z,21.70
2022-12-08T00:30:11.870Z,20.30
2022-12-08T00:31:11.129Z,22.80
2022-12-08T00:32:11.514Z,25.60
2022-12-08T00:33:11.776Z,22.10
2022-12-08T00:34:12.015Z,23.10
2022-12-08T00:35:12.393Z,21.50
2022-12-08T00:36:12.594Z,21.00
2022-12-08T00:37:12.876Z,22.70
2022-12-08T00:38:13.210Z,21.10
2022-12-08T00:39:13.546Z,21.80
2022-12-08T00:40:13.752Z,23.30
2022-12-08T00:41:14.055Z,19.70
2022-12-08T00:42:14.389Z,21.70
2022-12-08T00:43:14.725Z,21.10
2022-12-08T00:44:15.886Z,22.70
2022-12-08T00:45:15.206Z,21.30
2022-12-08T00:46:15.546Z,21.70
2022-12-08T00:47:18.665Z,21.50
2022-12-08T00:48:17.166Z,21.80
2022-12-08T00:49:16.356Z,21.30
2022-12-08T00:50:16.720Z,22.30
2022-12-08T00:51:16.961Z,21.40
2022-12-08T00:52:17.258Z,24.60
2022-12-08T00:53:17.584Z,20.60
2022-12-08T00:54:17.950Z,21.60
2022-12-08T00:55:18.255Z,20.90
2022-12-08T00:56:18.972Z,20.60
2022-12-08T00:57:18.879Z,23.70
2022-12-08T00:58:19.189Z,22.10
2022-12-08T00:59:19.407Z,23.40
2022-12-08T01:00:19.747Z,22.90
2022-12-08T01:01:20.120Z,21.50
2022-12-08T01:02:20.376Z,20.20
2022-12-08T01:03:20.573Z,22.20
2022-12-08T01:04:20.899Z,21.70
2022-12-08T01:05:21.245Z,19.60
2022-12-08T01:06:21.509Z,19.00
2022-12-08T01:07:21.803Z,19.60
2022-12-08T01:08:21.995Z,20.40
2022-12-08T01:09:22.234Z,20.10
2022-12-08T01:10:22.569Z,19.80
2022-12-08T01:11:22.844Z,19.60
2022-12-08T01:12:23.239Z,19.30
2022-12-08T01:13:23.438Z,19.50
2022-12-08T01:14:23.740Z,18.60
2022-12-08T01:15:24.108Z,17.00
2022-12-08T01:16:24.396Z,18.40
2022-12-08T01:17:25.672Z,18.90
2022-12-08T01:18:24.982Z,19.00
2022-12-08T01:19:25.191Z,20.20
2022-12-08T01:20:25.589Z,18.80
2022-12-08T01:21:25.788Z,19.50
2022-12-08T01:22:26.146Z,18.00
2022-12-08T01:23:26.446Z,18.00
2022-12-08T01:24:26.751Z,18.80
2022-12-08T01:25:27.044Z,18.40
2022-12-08T01:26:27.408Z,20.00
2022-12-08T01:27:27.589Z,19.60
2022-12-08T01:28:27.884Z,19.50
2022-12-08T01:29:28.221Z,22.40
2022-12-08T01:30:28.439Z,19.60
2022-12-08T01:31:28.825Z,20.00
2022-12-08T01:32:29.037Z,19.30
2022-12-08T01:33:29.383Z,19.10
2022-12-08T01:34:29.727Z,19.50
2022-12-08T01:35:30.051Z,20.40
2022-12-08T01:36:30.378Z,21.00
2022-12-08T01:37:30.688Z,20.60
2022-12-08T01:38:31.010Z,19.80
2022-12-08T01:39:31.228Z,20.50
2022-12-08T01:40:31.564Z,22.00
2022-12-08T01:41:31.851Z,19.80
2022-12-08T01:42:32.190Z,21.40
2022-12-08T01:43:32.508Z,20.00
2022-12-08T01:44:32.846Z,19.60
2022-12-08T01:45:33.125Z,19.10
2022-12-08T01:46:33.561Z,21.20
2022-12-08T01:47:33.651Z,20.90
2022-12-08T01:48:34.058Z,19.70
2022-12-08T01:49:34.284Z,19.50
2022-12-08T01:50:34.493Z,22.50
2022-12-08T01:51:34.710Z,19.80
2022-12-08T01:52:35.058Z,22.10
2022-12-08T01:53:35.311Z,21.40
2022-12-08T01:54:35.678Z,20.50
2022-12-08T01:55:35.957Z,21.80
2022-12-08T01:56:36.407Z,19.80
2022-12-08T01:57:36.592Z,19.90
2022-12-08T01:58:37.004Z,20.10
2022-12-08T01:59:37.261Z,19.80
2022-12-08T02:00:37.416Z,20.20
2022-12-08T02:01:37.922Z,18.10
2022-12-08T02:02:38.094Z,19.10
2022-12-08T02:03:38.341Z,19.60
2022-12-08T02:04:38.710Z,20.60
2022-12-08T02:05:38.947Z,21.80
2022-12-08T02:06:39.291Z,21.40
2022-12-08T02:07:39.619Z,21.50
2022-12-08T02:08:39.989Z,20.90
2022-12-08T02:09:40.226Z,21.40
2022-12-08T02:10:40.583Z,19.60
2022-12-08T02:11:40.775Z,19.90
2022-12-08T02:12:41.019Z,20.60
2022-12-08T02:13:41.412Z,20.20
2022-12-08T02:14:41.746Z,23.40
2022-12-08T02:15:41.953Z,20.10
2022-12-08T02:16:42.224Z,19.10
2022-12-08T02:17:42.541Z,20.20
2022-12-08T02:18:42.935Z,20.10
2022-12-08T02:19:43.161Z,20.70
2022-12-08T02:20:43.414Z,18.90
2022-12-08T02:21:43.657Z,20.50
2022-12-08T02:22:43.953Z,20.00
2022-12-08T02:23:44.653Z,21.40
2022-12-08T02:24:44.550Z,19.10
2022-12-08T02:25:44.869Z,19.10
2022-12-08T02:26:45.194Z,19.90
2022-12-08T02:27:45.392Z,18.90
2022-12-08T02:28:45.775Z,19.70
2022-12-08T02:29:46.087Z,19.90
2022-12-08T02:30:46.448Z,18.20
2022-12-08T02:31:46.639Z,20.70
2022-12-08T02:32:46.975Z,18.90
2022-12-08T02:33:47.345Z,21.40
2022-12-08T02:34:47.543Z,20.30
2022-12-08T02:35:47.827Z,18.60
2022-12-08T02:36:48.210Z,20.90
2022-12-08T02:37:48.580Z,20.80
2022-12-08T02:38:49.514Z,20.60
2022-12-08T02:39:49.135Z,20.40
2022-12-08T02:40:49.453Z,18.70
2022-12-08T02:41:49.788Z,22.40
2022-12-08T02:42:50.054Z,18.90
2022-12-08T02:43:50.222Z,19.30
2022-12-08T02:44:50.594Z,18.70
2022-12-08T02:45:50.878Z,16.80
2022-12-08T02:46:51.168Z,19.00
2022-12-08T02:47:51.354Z,19.50
2022-12-08T02:48:51.721Z,19.80
2022-12-08T02:49:52.047Z,17.60
2022-12-08T02:50:52.403Z,20.00
2022-12-08T02:51:52.571Z,18.50
2022-12-08T02:52:52.949Z,18.40
2022-12-08T02:53:53.156Z,19.10
2022-12-08T02:54:53.884Z,19.50
2022-12-08T02:55:53.796Z,20.00
2022-12-08T02:56:54.093Z,20.40
2022-12-08T02:57:54.426Z,21.20
2022-12-08T02:58:54.643Z,19.50
2022-12-08T02:59:55.038Z,18.50
2022-12-08T03:00:55.248Z,19.20
2022-12-08T03:01:55.624Z,17.90
2022-12-08T03:02:55.911Z,21.10
2022-12-08T03:03:56.224Z,18.90
2022-12-08T03:04:56.406Z,19.80
2022-12-08T03:05:56.769Z,19.50
2022-12-08T03:06:56.984Z,19.70
2022-12-08T03:07:57.307Z,19.60
2022-12-08T03:08:57.480Z,17.60
2022-12-08T03:09:57.824Z,19.50
2022-12-08T03:10:58.195Z,18.90
2022-12-08T03:11:58.421Z,19.40
2022-12-08T03:12:58.710Z,19.60
2022-12-08T03:13:59.022Z,17.80
2022-12-08T03:14:59.370Z,20.20
2022-12-08T03:15:59.715Z,19.90
2022-12-08T03:16:59.937Z,20.30
2022-12-08T03:18:00.320Z,20.70
2022-12-08T03:19:00.606Z,18.40
2022-12-08T03:20:00.926Z,21.50
2022-12-08T03:21:01.274Z,18.20
2022-12-08T03:22:01.461Z,20.70
2022-12-08T03:23:01.767Z,19.70
2022-12-08T03:24:02.063Z,22.40
2022-12-08T03:25:02.408Z,19.20
2022-12-08T03:26:02.719Z,20.70
2022-12-08T03:27:03.084Z,22.20
2022-12-08T03:28:03.423Z,21.50
2022-12-08T03:29:03.762Z,20.50
2022-12-08T03:30:04.316Z,19.40
2022-12-08T03:31:04.332Z,19.60
2022-12-08T03:32:04.567Z,21.40
2022-12-08T03:33:04.905Z,20.70
2022-12-08T03:34:05.180Z,19.40
2022-12-08T03:35:05.581Z,20.10
2022-12-08T03:36:05.748Z,21.80
2022-12-08T03:37:06.112Z,20.60
2022-12-08T03:38:06.407Z,23.70
2022-12-08T03:39:06.720Z,21.10
2022-12-08T03:40:07.531Z,19.40
2022-12-08T03:41:07.368Z,20.80
2022-12-08T03:42:07.715Z,21.20
2022-12-08T03:43:08.047Z,20.30
2022-12-08T03:44:08.447Z,20.60
2022-12-08T03:45:08.662Z,21.10
2022-12-08T03:46:09.042Z,21.40
2022-12-08T03:47:09.285Z,21.00
2022-12-08T03:48:09.606Z,21.60
2022-12-08T03:49:09.855Z,21.70
2022-12-08T03:50:10.125Z,19.50
2022-12-08T03:51:10.342Z,19.40
2022-12-08T03:52:10.617Z,21.60
2022-12-08T03:53:10.888Z,21.10
2022-12-08T03:54:11.196Z,21.00
2022-12-08T03:55:11.556Z,20.20
2022-12-08T03:56:11.919Z,19.60
2022-12-08T03:57:12.245Z,21.30
2022-12-08T03:58:12.451Z,19.70
2022-12-08T03:59:13.192Z,20.30
2022-12-08T04:00:13.071Z,20.30
2022-12-08T04:01:13.425Z,20.50
2022-12-08T04:02:13.727Z,19.50
2022-12-08T04:03:14.081Z,22.50
2022-12-08T04:04:14.341Z,20.30
2022-12-08T04:05:14.587Z,21.30
2022-12-08T04:06:14.801Z,19.80
2022-12-08T04:07:15.163Z,22.50
2022-12-08T04:08:15.477Z,20.40
2022-12-08T04:09:15.738Z,19.80
2022-12-08T04:10:15.956Z,20.20
2022-12-08T04:11:16.288Z,20.70
2022-12-08T04:12:16.551Z,21.20
2022-12-08T04:13:16.888Z,18.90
2022-12-08T04:14:17.303Z,21.20
2022-12-08T04:15:17.488Z,20.10
2022-12-08T04:16:17.842Z,20.10
2022-12-08T04:17:18.058Z,20.30
2022-12-08T04:18:18.380Z,21.80
2022-12-08T04:19:18.704Z,20.60
2022-12-08T04:20:18.926Z,20.40
2022-12-08T04:21:19.156Z,21.70
2022-12-08T04:22:19.463Z,21.00
2022-12-08T04:23:19.795Z,21.10
2022-12-08T04:24:20.077Z,22.90
2022-12-08T04:25:20.443Z,22.80
2022-12-08T04:26:21.611Z,21.40
2022-12-08T04:27:20.944Z,24.30
2022-12-08T04:28:21.309Z,23.20
2022-12-08T04:29:21.524Z,21.40
2022-12-08T04:30:21.753Z,21.20
2022-12-08T04:31:22.153Z,20.90
2022-12-08T04:32:22.405Z,20.00
2022-12-08T04:33:22.805Z,21.60
2022-12-08T04:34:22.994Z,21.40
2022-12-08T04:35:24.194Z,22.50
2022-12-08T04:36:23.653Z,21.70
2022-12-08T04:37:24.021Z,21.00
2022-12-08T04:38:24.198Z,22.00
2022-12-08T04:39:24.552Z,21.90
2022-12-08T04:40:24.836Z,20.90
2022-12-08T04:41:25.223Z,22.40
2022-12-08T04:42:25.454Z,22.40
2022-12-08T04:43:25.808Z,21.80
2022-12-08T04:44:26.154Z,21.90
2022-12-08T04:45:26.377Z,22.20
2022-12-08T04:46:26.717Z,23.10
2022-12-08T04:47:26.983Z,22.70
2022-12-08T04:48:27.273Z,23.70
2022-12-08T04:49:27.623Z,23.60
2022-12-08T04:50:27.966Z,21.30
2022-12-08T04:51:28.321Z,23.40
2022-12-08T04:52:28.492Z,22.80
2022-12-08T04:53:28.953Z,22.70
2022-12-08T04:54:29.105Z,23.50
2022-12-08T04:55:29.440Z,22.20
2022-12-08T04:56:29.738Z,21.70
2022-12-08T04:57:30.095Z,23.30
2022-12-08T04:58:30.361Z,22.70
2022-12-08T04:59:30.683Z,23.20
2022-12-08T05:00:30.979Z,22.50
2022-12-08T05:01:31.376Z,20.90
2022-12-08T05:02:31.694Z,23.30
2022-12-08T05:03:31.995Z,24.40
2022-12-08T05:04:32.260Z,23.80
2022-12-08T05:05:32.627Z,23.30
2022-12-08T05:06:32.913Z,23.20
2022-12-08T05:07:33.324Z,33.50
2022-12-08T05:08:33.561Z,21.80
2022-12-08T05:09:33.811Z,23.60
2022-12-08T05:10:34.107Z,30.50
2022-12-08T05:11:34.401Z,22.30
2022-12-08T05:12:34.820Z,22.40
2022-12-08T05:13:35.023Z,24.90
2022-12-08T05:14:35.330Z,22.50
2022-12-08T05:15:35.649Z,22.90
2022-12-08T05:16:36.062Z,23.60
2022-12-08T05:17:36.364Z,24.70
2022-12-08T05:18:36.544Z,20.80
2022-12-08T05:19:36.907Z,21.00
2022-12-08T05:20:37.110Z,21.90
2022-12-08T05:21:37.457Z,21.00
2022-12-08T05:22:37.745Z,21.30
2022-12-08T05:23:37.981Z,21.70
2022-12-08T05:24:42.531Z,21.40
2022-12-08T05:25:39.519Z,20.70
2022-12-08T05:26:38.761Z,21.50
2022-12-08T05:27:38.987Z,19.80
2022-12-08T05:28:42.448Z,23.00
2022-12-08T05:29:39.619Z,20.50
2022-12-08T05:30:39.990Z,21.70
2022-12-08T05:31:40.155Z,19.80
2022-12-08T05:32:40.480Z,22.50
2022-12-08T05:33:40.789Z,20.80
2022-12-08T05:34:41.094Z,19.90
2022-12-08T05:35:41.442Z,20.30
2022-12-08T05:36:41.641Z,21.30
2022-12-08T05:37:41.931Z,19.50
2022-12-08T05:38:42.236Z,21.30
2022-12-08T05:39:42.607Z,19.90
2022-12-08T05:40:42.916Z,18.20
2022-12-08T05:41:43.257Z,19.80
2022-12-08T05:42:43.443Z,21.10
2022-12-08T05:43:43.839Z,20.60
2022-12-08T05:44:44.067Z,18.90
2022-12-08T05:45:44.497Z,22.20
2022-12-08T05:46:44.683Z,21.60
2022-12-08T05:47:44.939Z,22.30
2022-12-08T05:48:45.263Z,19.90
2022-12-08T05:49:45.564Z,19.10
2022-12-08T05:50:45.797Z,19.20
2022-12-08T05:51:46.100Z,21.70
2022-12-08T05:52:46.439Z,18.50
2022-12-08T05:53:46.744Z,20.50
2022-12-08T05:54:47.094Z,20.00
2022-12-08T05:55:47.492Z,22.40
2022-12-08T05:56:47.683Z,21.80
2022-12-08T05:57:48.249Z,19.50
2022-12-08T05:58:48.419Z,20.50
2022-12-08T05:59:48.778Z,21.00
2022-12-08T06:00:49.153Z,21.20
2022-12-08T06:01:49.406Z,21.30
2022-12-08T06:02:49.869Z,20.30
2022-12-08T06:03:49.784Z,21.40
2022-12-08T06:04:50.053Z,25.50
2022-12-08T06:05:50.432Z,23.70
2022-12-08T06:06:50.717Z,19.10
2022-12-08T06:07:51.026Z,18.80
2022-12-08T06:08:51.263Z,22.40
2022-12-08T06:09:51.605Z,21.20
2022-12-08T06:10:51.913Z,21.10
2022-12-08T06:11:52.251Z,19.80
2022-12-08T06:12:52.473Z,21.80
2022-12-08T06:13:52.914Z,21.10
2022-12-08T06:14:53.126Z,19.50
2022-12-08T06:15:53.436Z,20.60
2022-12-08T06:16:53.975Z,24.00
2022-12-08T06:17:54.121Z,21.30
2022-12-08T06:18:54.271Z,20.90
2022-12-08T06:19:54.631Z,20.70
2022-12-08T06:20:54.751Z,21.30
2022-12-08T06:21:55.146Z,20.40
2022-12-08T06:22:55.302Z,22.80
2022-12-08T06:23:55.620Z,21.40
2022-12-08T06:24:55.961Z,22.80
2022-12-08T06:25:56.387Z,21.70
2022-12-08T06:26:56.479Z,19.30
2022-12-08T06:27:56.867Z,21.40
2022-12-08T06:28:57.131Z,21.10
2022-12-08T06:29:57.681Z,21.30
2022-12-08T06:30:57.714Z,21.90
2022-12-08T06:31:58.013Z,21.90
2022-12-08T06:32:58.292Z,21.20
2022-12-08T06:33:58.647Z,21.40
2022-12-08T06:34:58.928Z,20.10
2022-12-08T06:35:59.030Z,21.90
2022-12-08T06:36:59.378Z,22.50
2022-12-08T06:37:59.706Z,20.30
2022-12-08T06:38:59.879Z,24.60
2022-12-08T06:40:00.229Z,21.80
2022-12-08T06:41:00.457Z,20.60
2022-12-08T06:42:00.723Z,22.30
2022-12-08T06:43:01.005Z,24.10
2022-12-08T06:44:01.401Z,21.50
2022-12-08T06:45:01.740Z,24.10
2022-12-08T06:46:02.081Z,23.00
2022-12-08T06:47:02.296Z,22.80
2022-12-08T06:48:02.468Z,21.20
2022-12-08T06:49:02.714Z,22.60
2022-12-08T06:50:03.719Z,25.10
2022-12-08T06:51:03.351Z,21.00
2022-12-08T06:52:03.644Z,22.30
2022-12-08T06:53:05.702Z,27.30
2022-12-08T06:54:04.213Z,22.10
2022-12-08T06:55:04.382Z,20.00
2022-12-08T06:56:04.669Z,20.60
2022-12-08T06:57:04.935Z,20.30
2022-12-08T06:58:14.785Z,26.90
2022-12-08T06:59:06.546Z,19.50
2022-12-08T07:00:06.096Z,19.50
2022-12-08T07:01:06.137Z,22.10
2022-12-08T07:02:06.513Z,19.40
2022-12-08T07:03:06.652Z,26.40
2022-12-08T07:04:07.046Z,20.60
2022-12-08T07:05:07.123Z,19.80
2022-12-08T07:06:07.425Z,19.70
2022-12-08T07:07:07.677Z,18.30
2022-12-08T07:08:08.050Z,19.30
2022-12-08T07:09:08.169Z,21.80
2022-12-08T07:10:08.578Z,22.70
2022-12-08T07:11:08.690Z,20.90
2022-12-08T07:12:09.028Z,20.10
2022-12-08T07:13:09.258Z,20.00
2022-12-08T07:14:09.501Z,20.00
2022-12-08T07:15:09.775Z,21.80
2022-12-08T07:16:10.066Z,18.60
2022-12-08T07:17:10.351Z,19.90
2022-12-08T07:18:10.585Z,19.70
2022-12-08T07:19:10.872Z,21.80
2022-12-08T07:20:11.137Z,19.00
2022-12-08T07:21:11.396Z,19.00
2022-12-08T07:22:11.679Z,18.10
2022-12-08T07:23:11.937Z,21.90
2022-12-08T07:24:12.187Z,19.20
2022-12-08T07:25:12.442Z,20.30
2022-12-08T07:26:12.705Z,19.50
2022-12-08T07:27:12.986Z,19.30
2022-12-08T07:28:13.251Z,19.40
2022-12-08T07:29:13.519Z,19.90
2022-12-08T07:30:13.792Z,17.50
2022-12-08T07:31:14.207Z,21.90
2022-12-08T07:32:14.334Z,19.10
2022-12-08T07:33:14.627Z,21.60
2022-12-08T07:34:14.871Z,21.50
2022-12-08T07:35:15.177Z,19.10
2022-12-08T07:36:15.400Z,20.30
2022-12-08T07:37:15.647Z,20.00
2022-12-08T07:38:15.888Z,18.50
2022-12-08T07:39:16.193Z,17.50
2022-12-08T07:40:16.490Z,20.40
2022-12-08T07:41:16.814Z,17.40
2022-12-08T07:42:17.144Z,17.00
2022-12-08T07:43:17.310Z,18.70
2022-12-08T07:44:17.670Z,16.80
2022-12-08T07:45:17.969Z,17.80
2022-12-08T07:46:18.208Z,18.80
2022-12-08T07:47:18.420Z,19.30
2022-12-08T07:48:18.826Z,19.00
2022-12-08T07:49:19.072Z,17.70
2022-12-08T07:50:19.322Z,18.90
2022-12-08T07:51:19.566Z,17.10
2022-12-08T07:52:19.802Z,17.70
2022-12-08T07:53:20.113Z,18.10
2022-12-08T07:54:20.363Z,20.30
2022-12-08T07:55:20.622Z,19.50
2022-12-08T07:56:20.893Z,18.50
2022-12-08T07:57:21.169Z,19.80
2022-12-08T07:58:21.503Z,20.10
2022-12-08T07:59:22.329Z,19.00
2022-12-08T08:00:22.048Z,17.20
2022-12-08T08:01:22.492Z,19.60
2022-12-08T08:02:25.671Z,17.20
2022-12-08T08:03:22.871Z,20.50
2022-12-08T08:04:23.241Z,17.60
2022-12-08T08:05:23.488Z,16.80
2022-12-08T08:06:23.781Z,17.10
2022-12-08T08:07:24.014Z,16.90
2022-12-08T08:08:24.409Z,17.80
2022-12-08T08:09:24.642Z,17.30
2022-12-08T08:10:24.843Z,17.20
2022-12-08T08:11:25.176Z,16.10
2022-12-08T08:12:33.182Z,17.40
2022-12-08T08:13:26.737Z,17.50
2022-12-08T08:14:26.001Z,18.00
2022-12-08T08:15:26.291Z,16.40
2022-12-08T08:16:26.943Z,19.30
2022-12-08T08:17:26.957Z,17.30
2022-12-08T08:18:27.074Z,17.20
2022-12-08T08:19:27.305Z,17.00
2022-12-08T08:20:27.592Z,17.40
2022-12-08T08:22:29.142Z,18.30
2022-12-08T08:23:28.446Z,17.20
2022-12-08T08:24:28.679Z,24.50
2022-12-08T08:25:28.954Z,20.40
2022-12-08T08:26:29.225Z,20.00
2022-12-08T08:27:29.501Z,19.20
2022-12-08T08:28:29.788Z,22.60
2022-12-08T08:29:30.053Z,19.30
2022-12-08T08:30:30.461Z,19.60
2022-12-08T08:31:30.614Z,19.30
2022-12-08T08:32:30.874Z,19.80
2022-12-08T08:33:31.167Z,18.30
2022-12-08T08:34:31.443Z,18.40
2022-12-08T08:35:31.693Z,20.60
2022-12-08T08:36:31.969Z,17.30
2022-12-08T08:37:32.208Z,17.50
2022-12-08T08:38:32.566Z,20.10
2022-12-08T08:39:32.844Z,18.40
2022-12-08T08:40:33.203Z,17.40
2022-12-08T08:41:33.281Z,21.50
2022-12-08T08:42:33.578Z,21.60
2022-12-08T08:43:38.128Z,19.20
2022-12-08T08:44:48.599Z,18.40
2022-12-08T08:45:34.430Z,18.50
2022-12-08T08:46:34.766Z,17.80
2022-12-08T08:47:34.902Z,20.30
2022-12-08T08:48:35.305Z,17.50
2022-12-08T08:49:35.394Z,19.40
2022-12-08T08:50:37.757Z,22.10
2022-12-08T08:51:35.873Z,20.40
2022-12-08T08:52:36.148Z,22.40
2022-12-08T08:53:36.446Z,18.80
2022-12-08T08:54:36.659Z,19.10
2022-12-08T08:55:36.932Z,20.60
2022-12-08T08:56:37.208Z,19.60
2022-12-08T08:57:37.465Z,22.80
2022-12-08T08:58:37.756Z,21.60
2022-12-08T08:59:38.055Z,21.30
2022-12-08T09:00:38.360Z,19.70
2022-12-08T09:01:38.620Z,21.60
2022-12-08T09:02:38.963Z,23.30
2022-12-08T09:03:39.238Z,20.70
2022-12-08T09:04:39.578Z,19.60
2022-12-08T09:05:40.158Z,21.70
2022-12-08T09:06:40.213Z,21.10
2022-12-08T09:07:40.519Z,20.50
2022-12-08T09:08:40.784Z,21.60
2022-12-08T09:09:41.067Z,22.90
2022-12-08T09:10:41.336Z,19.10
2022-12-08T09:11:41.636Z,21.60
2022-12-08T09:12:41.900Z,21.90
2022-12-08T09:13:42.212Z,21.70
2022-12-08T09:14:42.420Z,21.10
2022-12-08T09:15:42.740Z,23.60
2022-12-08T09:16:43.102Z,22.70
2022-12-08T09:17:43.334Z,21.50
2022-12-08T09:18:43.592Z,20.60
2022-12-08T09:19:43.914Z,23.00
2022-12-08T09:20:44.165Z,23.10
2022-12-08T09:21:44.508Z,22.80
2022-12-08T09:22:44.747Z,20.50
2022-12-08T09:23:45.031Z,22.30
2022-12-08T09:24:45.284Z,24.10
2022-12-08T09:25:45.676Z,22.50
2022-12-08T09:26:45.926Z,22.80
2022-12-08T09:27:46.237Z,25.10
2022-12-08T09:28:46.768Z,23.30
2022-12-08T09:29:46.820Z,23.10
2022-12-08T09:30:47.277Z,34.80
2022-12-08T09:31:47.452Z,35.20
2022-12-08T09:32:47.653Z,23.90
2022-12-08T09:33:47.970Z,29.10
2022-12-08T09:34:52.121Z,26.40
2022-12-08T09:35:48.491Z,23.80
2022-12-08T09:36:48.832Z,23.30
2022-12-08T09:37:49.117Z,25.50
2022-12-08T09:38:49.402Z,24.80
2022-12-08T09:39:49.650Z,23.10
2022-12-08T09:40:49.914Z,25.90
2022-12-08T09:41:50.225Z,24.00
2022-12-08T09:42:50.501Z,22.10
2022-12-08T09:43:50.718Z,24.20
2022-12-08T09:44:50.987Z,25.90
2022-12-08T09:45:51.287Z,23.60
2022-12-08T09:46:51.658Z,24.10
2022-12-08T09:47:51.891Z,24.80
2022-12-08T09:48:52.211Z,23.40
2022-12-08T09:49:53.372Z,27.00
2022-12-08T09:50:52.805Z,22.40
2022-12-08T09:51:53.049Z,24.90
2022-12-08T09:52:53.355Z,22.40
2022-12-08T09:53:53.582Z,22.00
2022-12-08T09:54:53.885Z,23.80
2022-12-08T09:55:54.173Z,22.30
2022-12-08T09:56:54.522Z,24.60
2022-12-08T09:57:56.538Z,24.60
2022-12-08T09:58:55.058Z,22.60
2022-12-08T09:59:55.358Z,23.30
2022-12-08T10:00:55.655Z,28.70
2022-12-08T10:01:55.994Z,26.00
2022-12-08T10:02:56.301Z,24.40
2022-12-08T10:03:56.550Z,25.80
2022-12-08T10:04:56.936Z,27.90
2022-12-08T10:05:57.188Z,26.10
2022-12-08T10:06:57.529Z,25.60
2022-12-08T10:07:57.952Z,25.20
2022-12-08T10:08:58.118Z,26.20
2022-12-08T10:09:58.325Z,22.70
2022-12-08T10:10:58.610Z,25.30
2022-12-08T10:11:58.921Z,26.30
2022-12-08T10:12:59.201Z,33.10
2022-12-08T10:13:59.475Z,30.40
2022-12-08T10:14:59.762Z,25.00
2022-12-08T10:16:00.317Z,25.20
2022-12-08T10:17:00.428Z,29.00
2022-12-08T10:18:00.648Z,28.80
2022-12-08T10:19:00.979Z,29.60
2022-12-08T10:20:01.644Z,33.80
2022-12-08T10:21:01.578Z,29.90
2022-12-08T10:22:01.787Z,27.00
2022-12-08T10:23:02.042Z,23.60
2022-12-08T10:24:02.315Z,22.20
2022-12-08T10:25:02.598Z,21.80
2022-12-08T10:26:02.863Z,21.10
2022-12-08T10:27:03.157Z,20.80
2022-12-08T10:28:03.411Z,21.30
2022-12-08T10:29:03.659Z,25.00
2022-12-08T10:30:04.190Z,22.50
2022-12-08T10:31:04.293Z,22.00
2022-12-08T10:32:04.570Z,26.00
2022-12-08T10:33:04.848Z,31.60
2022-12-08T10:34:05.106Z,29.50
2022-12-08T10:35:05.422Z,31.60
2022-12-08T10:36:05.715Z,25.60
2022-12-08T10:37:05.978Z,23.20
2022-12-08T10:38:06.264Z,21.50
2022-12-08T10:39:06.529Z,22.90
2022-12-08T10:40:07.306Z,23.20
2022-12-08T10:41:07.143Z,24.10
2022-12-08T10:42:07.407Z,21.70
2022-12-08T10:43:07.684Z,20.60
2022-12-08T10:44:07.943Z,20.70
2022-12-08T10:45:08.244Z,18.70
2022-12-08T10:46:08.627Z,19.90
2022-12-08T10:47:08.883Z,23.10
2022-12-08T10:48:09.161Z,23.50
2022-12-08T10:49:09.461Z,24.00
2022-12-08T10:50:09.731Z,24.00
2022-12-08T10:51:10.056Z,21.50
2022-12-08T10:52:10.332Z,25.50
2022-12-08T10:53:10.661Z,21.50
2022-12-08T10:54:11.010Z,21.10
2022-12-08T10:55:11.220Z,20.90
2022-12-08T10:56:11.533Z,20.70
2022-12-08T10:57:11.799Z,23.50
2022-12-08T10:58:12.147Z,22.90
2022-12-08T10:59:12.431Z,22.10
2022-12-08T11:00:14.342Z,20.40
2022-12-08T11:01:13.070Z,23.00
2022-12-08T11:02:13.393Z,21.10
2022-12-08T11:03:13.551Z,20.60
2022-12-08T11:04:13.828Z,21.10
2022-12-08T11:05:14.217Z,24.40
2022-12-08T11:06:14.398Z,20.60
2022-12-08T11:07:14.752Z,22.20
2022-12-08T11:08:14.974Z,28.90
2022-12-08T11:09:15.291Z,24.90
2022-12-08T11:10:15.499Z,35.90
2022-12-08T11:11:16.947Z,28.30
2022-12-08T11:12:16.180Z,25.80
2022-12-08T11:13:16.439Z,19.90
2022-12-08T11:14:16.697Z,19.40
2022-12-08T11:15:17.086Z,19.60
2022-12-08T11:16:17.313Z,28.50
2022-12-08T11:17:17.684Z,24.00
2022-12-08T11:18:17.865Z,23.40
2022-12-08T11:19:18.136Z,20.70
2022-12-08T11:20:18.407Z,31.90
2022-12-08T11:21:18.661Z,22.50
2022-12-08T11:22:18.992Z,47.60
2022-12-08T11:23:19.232Z,36.80
2022-12-08T11:24:19.489Z,22.50
2022-12-08T11:25:19.787Z,55.70
2022-12-08T11:26:20.030Z,65.20
2022-12-08T11:27:20.371Z,72.70
2022-12-08T11:28:20.621Z,19.50
2022-12-08T11:29:20.918Z,24.10
2022-12-08T11:30:21.246Z,28.20
2022-12-08T11:31:21.578Z,32.80
2022-12-08T11:32:21.794Z,22.70
2022-12-08T11:33:22.044Z,23.50
2022-12-08T11:34:22.369Z,20.90
2022-12-08T11:35:22.590Z,22.50
2022-12-08T11:36:22.892Z,24.40
2022-12-08T11:37:23.236Z,21.30
2022-12-08T11:38:23.454Z,19.10
2022-12-08T11:39:23.737Z,22.30
2022-12-08T11:40:24.115Z,18.40
2022-12-08T11:41:24.224Z,17.30
2022-12-08T11:42:24.460Z,17.20
2022-12-08T11:43:24.735Z,21.50
2022-12-08T11:44:24.981Z,21.90
2022-12-08T11:45:25.382Z,17.10
2022-12-08T11:46:25.840Z,18.60
2022-12-08T11:47:25.910Z,18.40
2022-12-08T11:48:26.180Z,19.10
2022-12-08T11:49:26.504Z,19.90
2022-12-08T11:50:26.785Z,17.10
2022-12-08T11:51:27.032Z,20.90
2022-12-08T11:52:27.295Z,20.70
2022-12-08T11:53:27.653Z,18.00
2022-12-08T11:54:28.128Z,19.40
2022-12-08T11:55:29.048Z,16.80
2022-12-08T11:56:28.519Z,20.60
2022-12-08T11:57:28.836Z,21.30
2022-12-08T11:58:29.127Z,16.20
2022-12-08T11:59:29.347Z,17.70
2022-12-08T12:00:29.681Z,19.10
2022-12-08T12:01:29.924Z,20.60
2022-12-08T12:02:30.357Z,18.80
2022-12-08T12:03:30.517Z,18.70
2022-12-08T12:04:30.715Z,20.10
2022-12-08T12:06:03.368Z,20.90
2022-12-08T12:06:54.152Z,17.00
2022-12-08T12:07:32.632Z,18.50
2022-12-08T12:08:31.810Z,18.80
2022-12-08T12:09:32.137Z,16.00
2022-12-08T12:10:32.317Z,15.00
2022-12-08T12:11:32.561Z,18.50
2022-12-08T12:12:37.975Z,17.30
2022-12-08T12:13:34.051Z,17.20
2022-12-08T12:14:33.333Z,16.20
2022-12-08T12:15:33.612Z,16.90
2022-12-08T12:16:33.912Z,17.30
2022-12-08T12:17:34.087Z,14.20
2022-12-08T12:18:34.494Z,15.40
2022-12-08T12:19:34.771Z,14.50
2022-12-08T12:20:35.044Z,14.30
2022-12-08T12:21:35.269Z,15.40
2022-12-08T12:22:35.566Z,14.30
2022-12-08T12:23:35.802Z,16.30
2022-12-08T12:24:36.467Z,16.20
2022-12-08T12:25:36.376Z,18.10
2022-12-08T12:26:36.498Z,13.40
2022-12-08T12:27:36.736Z,12.70
2022-12-08T12:28:37.005Z,13.60
2022-12-08T12:29:37.260Z,15.80
2022-12-08T12:30:37.587Z,14.40
2022-12-08T12:31:38.797Z,12.40
2022-12-08T12:32:38.068Z,15.50
2022-12-08T12:33:38.544Z,15.20
2022-12-08T12:34:38.635Z,18.60
2022-12-08T12:35:38.888Z,18.10
2022-12-08T12:36:39.264Z,18.70
2022-12-08T12:37:39.568Z,18.40
2022-12-08T12:38:39.830Z,16.40
2022-12-08T12:39:40.090Z,15.70
2022-12-08T12:40:40.374Z,16.10
2022-12-08T12:41:41.620Z,16.70
2022-12-08T12:42:41.013Z,16.30
2022-12-08T12:43:41.244Z,17.00
2022-12-08T12:44:41.539Z,16.30
2022-12-08T12:45:41.803Z,17.30
2022-12-08T12:46:42.056Z,18.30
2022-12-08T12:47:42.344Z,17.00
2022-12-08T12:48:42.607Z,17.20
2022-12-08T12:49:42.835Z,18.00
2022-12-08T12:50:43.138Z,16.70
2022-12-08T12:51:43.397Z,17.80
2022-12-08T12:52:43.680Z,15.80
2022-12-08T12:53:44.021Z,17.60
2022-12-08T12:54:44.343Z,24.00
2022-12-08T12:55:44.607Z,23.70
2022-12-08T12:56:44.872Z,19.90